createdAt,value
2017-05-28T00:02:14.301Z,54.00
2017-05-28T00:04:44.232Z,53.40
2017-05-28T00:07:13.541Z,54.70
2017-05-28T00:09:42.604Z,54.90
2017-05-28T00:12:11.500Z,54.50
2017-05-28T00:14:40.694Z,54.00
2017-05-28T00:17:09.890Z,53.20
2017-05-28T00:19:39.110Z,53.20
2017-05-28T00:22:08.840Z,52.50
2017-05-28T00:24:38.026Z,53.20
2017-05-28T00:27:07.630Z,54.50
2017-05-28T00:29:36.822Z,55.60
2017-05-28T00:32:06.949Z,57.50
2017-05-28T00:34:36.165Z,56.70
2017-05-28T00:37:05.353Z,57.60
2017-05-28T00:39:35.278Z,57.50
2017-05-28T00:42:04.472Z,58.70
2017-05-28T00:44:33.664Z,58.70
2017-05-28T00:47:02.888Z,59.40
2017-05-28T00:49:32.088Z,59.40
2017-05-28T00:52:01.775Z,59.80
2017-05-28T00:54:30.644Z,60.00
2017-05-28T00:57:01.392Z,60.00
2017-05-28T00:59:30.670Z,60.60
2017-05-28T01:01:59.766Z,62.00
2017-05-28T01:04:28.786Z,62.60
2017-05-28T01:06:58.029Z,62.90
2017-05-28T01:09:27.238Z,63.40
2017-05-28T01:11:56.757Z,63.70
2017-05-28T01:14:25.969Z,64.60
2017-05-28T01:16:55.156Z,65.20
2017-05-28T01:19:25.191Z,65.60
2017-05-28T01:21:54.932Z,65.60
2017-05-28T01:24:24.128Z,66.00
2017-05-28T01:26:53.578Z,65.90
2017-05-28T01:29:22.705Z,65.60
2017-05-28T01:31:51.902Z,65.90
2017-05-28T01:34:21.909Z,66.10
2017-05-28T01:36:51.120Z,67.10
2017-05-28T01:39:21.692Z,66.40
2017-05-28T01:41:50.924Z,66.20
2017-05-28T01:44:20.145Z,66.90
2017-05-28T01:46:49.377Z,67.50
2017-05-28T01:49:19.577Z,67.70
2017-05-28T01:51:48.829Z,68.20
2017-05-28T01:54:18.448Z,67.80
2017-05-28T01:56:47.656Z,68.40
2017-05-28T01:59:17.205Z,68.60
2017-05-28T02:01:46.387Z,69.40
2017-05-28T02:04:15.582Z,69.10
2017-05-28T02:06:45.143Z,69.10
2017-05-28T02:09:14.387Z,69.70
2017-05-28T02:11:43.623Z,69.70
2017-05-28T02:14:12.861Z,69.20
2017-05-28T02:16:42.063Z,69.80
2017-05-28T02:19:11.245Z,70.10
2017-05-28T02:21:40.469Z,70.20
2017-05-28T02:24:09.664Z,71.00
2017-05-28T02:26:39.872Z,71.30
2017-05-28T02:29:09.813Z,71.30
2017-05-28T02:31:39.000Z,71.50
2017-05-28T02:34:08.273Z,71.30
2017-05-28T02:36:38.566Z,71.10
2017-05-28T02:39:09.136Z,71.50
2017-05-28T02:41:38.362Z,72.00
2017-05-28T02:44:07.572Z,71.90
2017-05-28T02:46:36.867Z,71.70
2017-05-28T02:49:06.051Z,71.60
2017-05-28T02:51:35.325Z,71.20
2017-05-28T02:54:04.513Z,71.40
2017-05-28T02:56:33.988Z,71.40
2017-05-28T02:59:04.189Z,71.10
2017-05-28T03:01:33.445Z,71.20
2017-05-28T03:04:02.680Z,71.40
2017-05-28T03:06:31.938Z,71.50
2017-05-28T03:09:02.324Z,71.80
2017-05-28T03:11:31.230Z,72.50
2017-05-28T03:14:00.439Z,73.00
2017-05-28T03:16:29.709Z,73.50
2017-05-28T03:19:01.660Z,73.00
2017-05-28T03:21:30.838Z,73.90
2017-05-28T03:24:00.089Z,74.50
2017-05-28T03:26:29.322Z,74.80
2017-05-28T03:28:59.219Z,74.30
2017-05-28T03:31:28.469Z,74.20
2017-05-28T03:33:58.613Z,73.70
2017-05-28T03:36:27.854Z,73.20
2017-05-28T03:38:57.169Z,73.20
2017-05-28T03:41:26.423Z,73.20
2017-05-28T03:43:55.897Z,73.90
2017-05-28T03:46:25.388Z,74.80
2017-05-28T03:48:54.580Z,74.90
2017-05-28T03:51:23.774Z,75.10
2017-05-28T03:53:53.680Z,75.20
2017-05-28T03:56:23.722Z,75.30
2017-05-28T03:58:54.150Z,75.20
2017-05-28T04:01:23.338Z,75.40
2017-05-28T04:03:53.870Z,75.80
2017-05-28T04:06:23.753Z,75.70
2017-05-28T04:08:53.779Z,75.70
2017-05-28T04:11:22.967Z,75.90
2017-05-28T04:13:52.507Z,75.30
2017-05-28T04:16:22.760Z,75.10
2017-05-28T04:18:51.968Z,75.40
2017-05-28T04:21:21.184Z,74.60
2017-05-28T04:23:50.407Z,75.30
2017-05-28T04:26:20.508Z,75.00
2017-05-28T04:28:49.732Z,75.10
2017-05-28T04:31:18.928Z,74.70
2017-05-28T04:33:47.468Z,74.50
2017-05-28T04:36:16.695Z,75.50
2017-05-28T04:38:45.890Z,74.60
2017-05-28T04:41:15.657Z,75.10
2017-05-28T04:43:45.117Z,75.50
2017-05-28T04:46:14.310Z,75.60
2017-05-28T04:48:45.405Z,75.50
2017-05-28T04:51:14.625Z,75.50
2017-05-28T04:53:43.837Z,76.00
2017-05-28T04:56:13.240Z,76.20
2017-05-28T04:58:42.654Z,76.70
2017-05-28T05:01:11.842Z,75.90
2017-05-28T05:03:41.254Z,76.30
2017-05-28T05:06:10.355Z,76.10
2017-05-28T05:08:39.572Z,75.70
2017-05-28T05:11:08.774Z,76.30
2017-05-28T05:13:37.969Z,75.90
2017-05-28T05:16:06.866Z,76.20
2017-05-28T05:18:35.754Z,76.90
2017-05-28T05:21:04.969Z,76.60
2017-05-28T05:23:35.025Z,77.10
2017-05-28T05:26:04.226Z,76.50
2017-05-28T05:28:33.460Z,76.80
2017-05-28T05:31:02.684Z,76.70
2017-05-28T05:33:31.891Z,76.90
2017-05-28T05:36:01.083Z,76.30
2017-05-28T05:38:30.320Z,76.30
2017-05-28T05:40:59.206Z,76.40
2017-05-28T05:43:28.414Z,76.50
2017-05-28T05:45:57.619Z,76.50
2017-05-28T05:48:27.078Z,75.90
2017-05-28T05:50:56.265Z,75.70
2017-05-28T05:53:25.495Z,76.20
2017-05-28T05:55:54.684Z,75.50
2017-05-28T05:58:23.574Z,74.90
2017-05-28T06:00:52.504Z,74.70
2017-05-28T06:03:21.696Z,74.70
2017-05-28T06:05:54.612Z,74.30
2017-05-28T06:08:23.800Z,74.20
2017-05-28T06:10:52.984Z,74.00
2017-05-28T06:13:22.204Z,74.20
2017-05-28T06:15:51.390Z,74.00
2017-05-28T06:18:20.599Z,73.90
2017-05-28T06:20:49.817Z,72.70
2017-05-28T06:23:19.021Z,73.10
2017-05-28T06:25:49.051Z,72.70
2017-05-28T06:28:18.240Z,72.80
2017-05-28T06:30:47.534Z,72.80
2017-05-28T06:35:52.987Z,72.10
2017-05-28T06:38:21.908Z,71.90
2017-05-28T06:40:50.993Z,72.20
2017-05-28T06:43:20.183Z,72.80
2017-05-28T06:45:49.394Z,72.50
2017-05-28T06:48:18.640Z,72.20
2017-05-28T06:50:47.838Z,73.10
2017-05-28T06:53:17.045Z,72.20
2017-05-28T06:55:46.258Z,72.50
2017-05-28T06:58:15.440Z,71.40
2017-05-28T07:00:44.669Z,70.20
2017-05-28T07:03:13.971Z,70.00
2017-05-28T07:05:43.217Z,70.50
2017-05-28T07:08:12.588Z,70.70
2017-05-28T07:10:42.393Z,70.90
2017-05-28T07:13:11.624Z,71.20
2017-05-28T07:15:40.828Z,70.50
2017-05-28T07:18:10.384Z,70.20
2017-05-28T07:20:39.591Z,69.70
2017-05-28T07:23:08.828Z,69.30
2017-05-28T07:25:38.352Z,69.60
2017-05-28T07:28:07.580Z,69.70
2017-05-28T07:30:37.683Z,68.80
2017-05-28T07:33:06.705Z,67.80
2017-05-28T07:35:35.905Z,67.80
2017-05-28T07:38:05.133Z,67.90
2017-05-28T07:40:34.336Z,67.40
2017-05-28T07:43:03.540Z,66.50
2017-05-28T07:45:34.065Z,66.80
2017-05-28T07:48:03.904Z,66.10
2017-05-28T07:50:33.725Z,66.10
2017-05-28T07:53:02.925Z,66.30
2017-05-28T07:55:32.204Z,66.80
2017-05-28T07:58:01.726Z,65.80
2017-05-28T08:00:30.937Z,66.10
2017-05-28T08:03:00.333Z,66.10
2017-05-28T08:05:29.610Z,67.00
2017-05-28T08:07:58.785Z,65.50
2017-05-28T08:10:27.990Z,64.80
2017-05-28T08:12:57.207Z,65.20
2017-05-28T08:15:26.437Z,65.70
2017-05-28T08:17:55.644Z,66.30
2017-05-28T08:20:25.884Z,64.90
2017-05-28T08:22:55.103Z,63.90
2017-05-28T08:25:24.303Z,64.20
2017-05-28T08:27:54.233Z,64.60
2017-05-28T08:30:25.461Z,65.00
2017-05-28T08:32:56.556Z,64.90
2017-05-28T08:35:26.644Z,65.30
2017-05-28T08:37:55.780Z,65.40
2017-05-28T08:40:25.004Z,66.00
2017-05-28T08:42:53.888Z,67.10
2017-05-28T08:45:23.098Z,66.60
2017-05-28T08:47:52.298Z,66.20
2017-05-28T08:50:23.183Z,65.70
2017-05-28T08:52:52.082Z,66.20
2017-05-28T08:55:21.301Z,66.60
2017-05-28T08:57:51.323Z,67.20
2017-05-28T09:00:21.071Z,68.00
2017-05-28T09:02:50.276Z,68.20
2017-05-28T09:05:19.480Z,67.80
2017-05-28T09:07:48.693Z,68.30
2017-05-28T09:10:17.896Z,67.90
2017-05-28T09:12:47.038Z,69.70
2017-05-28T09:15:16.232Z,69.80
2017-05-28T09:17:45.709Z,68.80
2017-05-28T09:20:14.917Z,68.90
2017-05-28T09:22:44.120Z,69.00
2017-05-28T09:25:13.341Z,68.80
2017-05-28T09:27:43.737Z,69.20
2017-05-28T09:30:12.941Z,68.70
2017-05-28T09:32:42.879Z,69.20
2017-05-28T09:35:12.117Z,69.30
2017-05-28T09:37:42.728Z,68.90
2017-05-28T09:40:11.604Z,68.70
2017-05-28T09:42:42.129Z,68.80
2017-05-28T09:45:12.257Z,69.50
2017-05-28T09:47:41.448Z,69.80
2017-05-28T09:50:10.652Z,69.60
2017-05-28T09:52:39.880Z,70.00
2017-05-28T09:55:09.101Z,70.10
2017-05-28T09:57:38.296Z,70.10
2017-05-28T10:00:07.517Z,70.00
2017-05-28T10:02:37.661Z,68.90
2017-05-28T10:05:06.625Z,68.40
2017-05-28T10:07:37.169Z,68.50
2017-05-28T10:10:06.445Z,68.40
2017-05-28T10:12:35.644Z,67.90
2017-05-28T10:15:04.840Z,67.10
2017-05-28T10:17:35.803Z,67.80
2017-05-28T10:20:05.797Z,67.80
2017-05-28T10:22:34.915Z,68.20
2017-05-28T10:25:04.103Z,66.80
2017-05-28T10:27:34.636Z,65.90
2017-05-28T10:30:04.903Z,65.30
2017-05-28T10:32:34.119Z,64.60
2017-05-28T10:35:03.948Z,64.40
2017-05-28T10:37:33.474Z,63.20
2017-05-28T10:40:03.332Z,62.60
2017-05-28T10:42:32.525Z,62.70
2017-05-28T10:45:01.764Z,60.00
2017-05-28T10:47:30.976Z,59.70
2017-05-28T10:50:00.081Z,59.80
2017-05-28T10:52:29.302Z,57.50
2017-05-28T10:54:59.194Z,58.10
2017-05-28T10:57:29.385Z,57.70
2017-05-28T10:59:58.593Z,56.90
2017-05-28T11:02:27.794Z,56.20
2017-05-28T11:04:57.046Z,56.40
2017-05-28T11:07:26.240Z,57.10
2017-05-28T11:09:55.440Z,55.90
2017-05-28T11:12:26.152Z,56.10
2017-05-28T11:14:55.415Z,57.60
2017-05-28T11:17:24.645Z,56.30
2017-05-28T11:19:53.853Z,54.60
2017-05-28T11:22:26.126Z,55.30
2017-05-28T11:24:55.332Z,54.50
2017-05-28T11:27:24.534Z,53.60
2017-05-28T11:29:55.665Z,53.40
2017-05-28T11:32:25.869Z,53.50
2017-05-28T11:34:57.707Z,54.10
2017-05-28T11:37:26.913Z,54.90
2017-05-28T11:39:56.132Z,54.10
2017-05-28T11:42:26.726Z,54.10
2017-05-28T11:44:57.662Z,55.50
2017-05-28T11:47:26.831Z,55.20
2017-05-28T11:49:56.746Z,55.10
2017-05-28T11:52:25.985Z,54.50
2017-05-28T11:54:55.236Z,53.50
2017-05-28T11:57:24.783Z,54.70
2017-05-28T11:59:53.969Z,54.10
2017-05-28T12:02:23.164Z,54.00
2017-05-28T12:04:53.358Z,52.60
2017-05-28T12:07:25.125Z,52.70
2017-05-28T12:09:55.217Z,54.50
2017-05-28T12:12:24.454Z,54.30
2017-05-28T12:14:53.770Z,54.60
2017-05-28T12:17:23.980Z,55.00
2017-05-28T12:19:53.402Z,54.80
2017-05-28T12:22:23.109Z,55.00
2017-05-28T12:24:52.992Z,55.80
2017-05-28T12:27:23.006Z,56.20
2017-05-28T12:29:52.675Z,55.80
2017-05-28T12:32:22.643Z,56.40
2017-05-28T12:34:52.370Z,56.40
2017-05-28T12:37:21.741Z,57.20
2017-05-28T12:39:50.975Z,56.30
2017-05-28T12:42:21.010Z,56.10
2017-05-28T12:44:50.197Z,57.00
2017-05-28T12:47:22.792Z,57.30
2017-05-28T12:49:54.298Z,56.40
2017-05-28T12:52:25.388Z,56.90
2017-05-28T12:54:55.757Z,57.00
2017-05-28T12:57:25.713Z,57.10
2017-05-28T13:00:00.185Z,57.10
2017-05-28T13:02:30.676Z,57.00
2017-05-28T13:04:59.941Z,57.00
2017-05-28T13:07:29.334Z,57.50
2017-05-28T13:09:59.370Z,55.90
2017-05-28T13:12:28.652Z,56.70
2017-05-28T13:14:57.246Z,57.20
2017-05-28T13:17:26.473Z,57.10
2017-05-28T13:19:55.733Z,57.20
2017-05-28T13:22:25.013Z,57.50
2017-05-28T13:24:54.209Z,57.40
2017-05-28T13:27:24.464Z,57.50
2017-05-28T13:29:56.077Z,57.70
2017-05-28T13:32:25.333Z,57.90
2017-05-28T13:34:54.209Z,57.40
2017-05-28T13:37:26.345Z,57.40
2017-05-28T13:39:56.259Z,57.90
2017-05-28T13:42:25.513Z,58.20
2017-05-28T13:44:56.641Z,57.80
2017-05-28T13:47:26.726Z,57.80
2017-05-28T13:49:55.988Z,57.90
2017-05-28T13:52:29.568Z,57.90
2017-05-28T13:54:59.319Z,58.30
2017-05-28T13:57:29.393Z,58.40
2017-05-28T13:59:58.635Z,58.50
2017-05-28T14:02:27.518Z,58.90
2017-05-28T14:04:57.335Z,58.80
2017-05-28T14:07:26.190Z,58.70
2017-05-28T14:09:55.444Z,59.00
2017-05-28T14:12:25.509Z,59.00
2017-05-28T14:14:55.731Z,58.90
2017-05-28T14:17:25.573Z,58.90
2017-05-28T14:19:54.674Z,59.10
2017-05-28T14:22:25.749Z,58.90
2017-05-28T14:24:55.723Z,59.40
2017-05-28T14:27:25.023Z,59.00
2017-05-28T14:29:54.629Z,58.90
2017-05-28T14:32:24.725Z,59.10
2017-05-28T14:34:53.977Z,59.20
2017-05-28T14:37:23.425Z,60.00
2017-05-28T14:39:52.712Z,59.40
2017-05-28T14:42:22.252Z,59.30
2017-05-28T14:44:51.471Z,58.80
2017-05-28T14:47:21.496Z,59.20
2017-05-28T14:49:51.630Z,59.30
2017-05-28T14:52:21.200Z,59.20
2017-05-28T14:54:50.490Z,58.70
2017-05-28T14:57:22.862Z,58.90
2017-05-28T14:59:52.643Z,58.10
2017-05-28T15:02:21.191Z,58.90
2017-05-28T15:04:51.698Z,58.90
2017-05-28T15:07:21.088Z,58.80
2017-05-28T15:09:52.166Z,58.70
2017-05-28T15:12:22.789Z,58.40
2017-05-28T15:14:52.670Z,58.20
2017-05-28T15:17:22.686Z,58.00
2017-05-28T15:19:51.577Z,58.60
2017-05-28T15:22:20.781Z,58.70
2017-05-28T15:24:51.449Z,58.80
2017-05-28T15:27:23.498Z,59.40
2017-05-28T15:29:53.597Z,59.30
2017-05-28T15:32:23.566Z,59.30
2017-05-28T15:34:53.820Z,59.60
2017-05-28T15:37:22.689Z,59.90
2017-05-28T15:39:52.564Z,59.40
2017-05-28T15:42:21.833Z,59.30
2017-05-28T15:44:51.623Z,58.80
2017-05-28T15:47:21.238Z,59.40
2017-05-28T15:49:51.108Z,58.70
2017-05-28T15:52:21.216Z,58.70
2017-05-28T15:54:50.469Z,58.90
2017-05-28T15:57:19.562Z,58.80
2017-05-28T15:59:48.773Z,59.10
2017-05-28T16:02:18.766Z,59.30
2017-05-28T16:04:47.974Z,59.10
2017-05-28T16:07:17.271Z,58.70
2017-05-28T16:09:46.133Z,58.50
2017-05-28T16:12:15.365Z,59.00
2017-05-28T16:14:45.046Z,59.00
2017-05-28T16:17:14.828Z,59.10
2017-05-28T16:19:44.382Z,59.00
2017-05-28T16:22:14.125Z,59.00
2017-05-28T16:24:44.208Z,59.00
2017-05-28T16:27:14.388Z,59.20
2017-05-28T16:29:43.616Z,59.60
2017-05-28T16:32:13.486Z,59.50
2017-05-28T16:34:42.689Z,59.40
2017-05-28T16:37:12.959Z,59.70
2017-05-28T16:39:42.201Z,60.00
2017-05-28T16:42:11.557Z,60.30
2017-05-28T16:44:41.165Z,60.90
2017-05-28T16:47:10.529Z,60.30
2017-05-28T16:49:40.819Z,60.20
2017-05-28T16:52:10.300Z,61.80
2017-05-28T16:54:40.397Z,61.10
2017-05-28T16:57:11.073Z,61.40
2017-05-28T16:59:41.770Z,62.10
2017-05-28T17:02:11.887Z,61.90
2017-05-28T17:04:43.651Z,61.20
2017-05-28T17:07:15.544Z,61.70
2017-05-28T17:09:44.858Z,61.70
2017-05-28T17:12:14.168Z,61.40
2017-05-28T17:14:43.440Z,60.10
2017-05-28T17:17:15.347Z,59.10
2017-05-28T17:19:46.275Z,59.20
2017-05-28T17:22:16.263Z,59.50
2017-05-28T17:24:45.830Z,59.80
2017-05-28T17:27:15.535Z,58.10
2017-05-28T17:29:46.206Z,56.40
2017-05-28T17:32:16.482Z,55.50
2017-05-28T17:34:46.686Z,55.80
2017-05-28T17:37:15.832Z,56.30
2017-05-28T17:39:45.139Z,56.80
2017-05-28T17:42:14.480Z,57.70
2017-05-28T17:44:43.704Z,58.40
2017-05-28T17:47:12.896Z,58.50
2017-05-28T17:49:42.120Z,59.10
2017-05-28T17:52:13.000Z,59.40
2017-05-28T17:54:43.160Z,60.80
2017-05-28T17:57:13.648Z,61.50
2017-05-28T17:59:42.965Z,61.70
2017-05-28T18:02:12.193Z,61.10
2017-05-28T18:04:42.146Z,61.20
2017-05-28T18:07:11.342Z,59.70
2017-05-28T18:09:41.564Z,59.50
2017-05-28T18:12:10.784Z,60.30
2017-05-28T18:14:43.164Z,60.20
2017-05-28T18:17:12.407Z,61.10
2017-05-28T18:19:42.795Z,61.30
2017-05-28T18:22:12.047Z,63.00
2017-05-28T18:24:41.273Z,64.00
2017-05-28T18:27:11.402Z,63.20
2017-05-28T18:29:41.109Z,62.80
2017-05-28T18:32:10.325Z,63.50
2017-05-28T18:34:40.116Z,64.90
2017-05-28T18:37:09.345Z,65.30
2017-05-28T18:39:38.774Z,65.40
2017-05-28T18:42:08.024Z,65.20
2017-05-28T18:44:37.596Z,65.70
2017-05-28T18:47:06.809Z,67.30
2017-05-28T18:49:36.074Z,65.40
2017-05-28T18:52:05.778Z,65.80
2017-05-28T18:54:35.749Z,65.80
2017-05-28T18:57:06.275Z,65.70
2017-05-28T18:59:37.517Z,66.50
2017-05-28T19:02:07.525Z,66.70
2017-05-28T19:04:36.771Z,66.40
2017-05-28T19:07:06.049Z,67.20
2017-05-28T19:09:36.181Z,65.70
2017-05-28T19:12:05.853Z,67.10
2017-05-28T19:14:35.757Z,66.90
2017-05-28T19:17:05.585Z,67.60
2017-05-28T19:19:34.839Z,68.10
2017-05-28T19:22:04.313Z,67.50
2017-05-28T19:24:33.887Z,68.30
2017-05-28T19:27:03.126Z,66.90
2017-05-28T19:29:34.441Z,67.30
2017-05-28T19:32:03.846Z,66.80
2017-05-28T19:34:33.228Z,67.70
2017-05-28T19:37:03.064Z,66.60
2017-05-28T19:39:31.999Z,66.50
2017-05-28T19:42:02.670Z,67.10
2017-05-28T19:44:33.669Z,66.70
2017-05-28T19:47:03.314Z,66.00
2017-05-28T19:49:32.279Z,66.60
2017-05-28T19:52:02.171Z,67.10
2017-05-28T19:54:31.458Z,66.60
2017-05-28T19:57:01.583Z,65.80
2017-05-28T19:59:32.442Z,66.40
2017-05-28T20:02:01.651Z,66.30
2017-05-28T20:04:30.878Z,66.50
2017-05-28T20:07:01.192Z,67.00
2017-05-28T20:09:30.456Z,67.90
2017-05-28T20:12:01.417Z,67.20
2017-05-28T20:14:32.349Z,67.00
2017-05-28T20:17:01.619Z,66.70
2017-05-28T20:19:31.907Z,67.00
2017-05-28T20:22:03.103Z,67.60
2017-05-28T20:24:32.633Z,67.50
2017-05-28T20:27:03.165Z,68.10
2017-05-28T20:29:32.445Z,67.80
2017-05-28T20:32:01.701Z,67.10
2017-05-28T20:34:30.999Z,67.30
2017-05-28T20:37:03.819Z,68.00
2017-05-28T20:39:34.415Z,67.70
2017-05-28T20:42:04.316Z,68.20
2017-05-28T20:44:33.893Z,68.40
2017-05-28T20:47:03.211Z,68.60
2017-05-28T20:49:32.410Z,68.80
2017-05-28T20:52:01.358Z,68.70
2017-05-28T20:54:31.402Z,68.30
2017-05-28T20:57:00.643Z,68.30
2017-05-28T20:59:29.689Z,68.40
2017-05-28T21:02:00.682Z,68.70
2017-05-28T21:04:30.808Z,68.80
2017-05-28T21:07:00.119Z,69.90
2017-05-28T21:09:29.384Z,69.10
2017-05-28T21:11:59.154Z,70.00
2017-05-28T21:14:28.041Z,70.00
2017-05-28T21:16:59.591Z,70.20
2017-05-28T21:19:28.791Z,70.40
2017-05-28T21:21:57.985Z,70.80
2017-05-28T21:24:28.209Z,71.20
2017-05-28T21:26:58.171Z,71.10
2017-05-28T21:29:28.667Z,71.00
2017-05-28T21:31:59.829Z,71.00
2017-05-28T21:34:29.329Z,71.00
2017-05-28T21:36:59.345Z,70.60
2017-05-28T21:39:28.568Z,70.90
2017-05-28T21:42:01.874Z,73.20
2017-05-28T21:44:31.617Z,71.80
2017-05-28T21:47:01.561Z,71.70
2017-05-28T21:49:30.868Z,71.80
2017-05-28T21:52:00.432Z,72.10
2017-05-28T21:54:30.558Z,71.90
2017-05-28T21:56:59.770Z,72.90
2017-05-28T21:59:28.979Z,72.90
2017-05-28T22:01:58.203Z,72.60
2017-05-28T22:04:28.257Z,72.80
2017-05-28T22:06:59.181Z,73.10
2017-05-28T22:09:28.389Z,73.60
2017-05-28T22:11:57.136Z,73.40
2017-05-28T22:14:26.385Z,73.20
2017-05-28T22:16:55.276Z,72.70
2017-05-28T22:19:25.065Z,72.60
2017-05-28T22:21:54.370Z,72.30
2017-05-28T22:24:23.859Z,72.80
2017-05-28T22:26:53.302Z,72.30
2017-05-28T22:29:22.571Z,72.50
2017-05-28T22:31:51.878Z,72.80
2017-05-28T22:34:21.318Z,73.20
2017-05-28T22:36:51.249Z,74.00
2017-05-28T22:39:21.756Z,73.90
2017-05-28T22:41:51.530Z,74.10
2017-05-28T22:44:20.640Z,73.60
2017-05-28T22:46:52.390Z,73.10
2017-05-28T22:49:22.818Z,73.10
2017-05-28T22:51:51.704Z,73.70
2017-05-28T22:54:21.031Z,74.70
2017-05-28T22:56:50.970Z,73.90
2017-05-28T22:59:21.401Z,73.80
2017-05-28T23:01:51.690Z,72.90
2017-05-28T23:04:20.969Z,73.30
2017-05-28T23:06:50.225Z,73.50
2017-05-28T23:09:19.776Z,74.30
2017-05-28T23:11:50.811Z,74.20
2017-05-28T23:14:20.044Z,74.20
2017-05-28T23:16:51.106Z,74.70
2017-05-28T23:19:20.789Z,75.00
2017-05-28T23:21:52.701Z,75.40
2017-05-28T23:24:22.733Z,75.90
2017-05-28T23:26:54.340Z,76.10
2017-05-28T23:29:25.479Z,75.90
2017-05-28T23:31:55.649Z,75.30
2017-05-28T23:34:25.873Z,76.40
2017-05-28T23:36:56.001Z,76.80
2017-05-28T23:39:25.294Z,76.60
2017-05-28T23:41:55.613Z,76.70
2017-05-28T23:44:25.817Z,76.60
2017-05-28T23:46:55.026Z,76.90
2017-05-28T23:49:25.757Z,77.40
2017-05-28T23:51:55.936Z,77.40
2017-05-28T23:54:25.489Z,77.90
2017-05-28T23:56:55.685Z,77.90
2017-05-28T23:59:26.117Z,77.70
